Time;durP1;ratioP1;P1;durP2;ratioP2;P2;SDS_P1;SDS_P2;PMS_P1;PMS_P2;Temp;Humidity;BMP_temperature;BMP_pressure;BME280_temperature;BME280_humidity;BME280_pressure;Samples;Min_cycle;Max_cycle;Signal;HPM_P1;HPM_P2
2024/03/31 00:00:00;;;;;;;60.00;11.30;;;;;;;13.95;50.66;97412.77;435094;1256;109394;-41
2024/03/31 00:10:09;;;;;;;55.90;12.40;;;;;;;13.84;50.87;97408.89;435173;1256;99388;-40
2024/03/31 00:20:14;;;;;;;;;;;;;;;13.77;51.31;97404.33;435360;1256;113405;-41
2024/03/31 00:30:21;;;;;;;43.30;9.90;;;;;;;13.77;51.55;97403.11;435192;1255;107072;-41
2024/03/31 00:40:28;;;;;;;46.90;10.60;;;;;;;13.64;51.92;97398.55;435187;1254;100588;-40
2024/03/31 00:50:35;;;;;;;56.90;10.30;;;;;;;13.30;52.23;97389.84;435263;1256;108853;-41
2024/03/31 01:00:41;;;;;;;53.40;10.60;;;;;;;13.09;52.88;97381.20;435313;1256;100606;-40
2024/03/31 01:10:48;;;;;;;51.30;9.80;;;;;;;13.24;53.27;97371.83;435181;1255;113473;-40
2024/03/31 01:20:56;;;;;;;43.60;9.70;;;;;;;13.37;53.63;97366.95;435305;1256;108410;-41
2024/03/31 01:31:02;;;;;;;37.30;8.30;;;;;;;13.29;53.81;97366.70;435274;1251;100610;-41
2024/03/31 01:41:09;;;;;;;48.70;9.10;;;;;;;13.22;54.03;97364.84;435118;1256;109651;-41
2024/03/31 01:51:16;;;;;;;47.80;8.90;;;;;;;12.93;54.12;97359.98;435115;1256;100551;-42
2024/03/31 02:01:22;;;;;;;40.50;8.70;;;;;;;12.83;54.61;97353.30;435133;1256;113243;-41
2024/03/31 02:11:29;;;;;;;39.70;8.60;;;;;;;12.89;54.96;97352.80;434987;1256;108598;-41
2024/03/31 02:21:35;;;;;;;45.00;8.90;;;;;;;12.93;55.27;97344.69;435272;1253;100588;-41
2024/03/31 02:31:42;;;;;;;36.70;9.60;;;;;;;12.90;55.45;97340.95;435103;1256;107253;-40
2024/03/31 02:41:50;;;;;;;44.10;8.00;;;;;;;12.95;55.86;97340.80;435360;1256;100594;-41
2024/03/31 02:51:56;;;;;;;56.20;8.70;;;;;;;12.98;56.32;97345.49;435240;1257;112538;-40
2024/03/31 03:02:02;;;;;;;30.20;7.60;;;;;;;12.95;56.52;97345.73;435156;1256;107075;-41
2024/03/31 03:12:09;;;;;;;44.10;8.60;;;;;;;12.91;56.72;97344.86;435208;1256;99495;-40
2024/03/31 03:22:16;;;;;;;33.80;7.70;;;;;;;12.87;56.79;97341.88;435184;1256;108516;-41
2024/03/31 03:32:23;;;;;;;34.60;9.00;;;;;;;12.79;56.87;97340.16;435134;1252;100604;-42
2024/03/31 03:42:29;;;;;;;28.60;6.20;;;;;;;12.62;56.98;97338.52;435112;1253;112338;-39
2024/03/31 04:02:42;;;;;;;43.90;10.00;;;;;;;12.33;57.48;97328.54;435318;1256;99275;-40
2024/03/31 04:12:50;;;;;;;29.10;8.20;;;;;;;12.09;57.76;97320.90;435276;1256;108669;-41
2024/03/31 04:22:57;;;;;;;33.50;8.50;;;;;;;11.98;58.29;97321.36;435278;1256;99729;-41
2024/03/31 04:33:04;;;;;;;29.50;7.00;;;;;;;12.12;58.66;97315.54;435423;1253;112398;-40
2024/03/31 04:43:11;;;;;;;26.00;6.60;;;;;;;12.28;59.02;97311.07;435353;1256;107540;-40
2024/03/31 04:53:17;;;;;;;21.80;7.10;;;;;;;12.51;59.09;97307.13;435195;1253;99314;-41
2024/03/31 05:13:29;;;;;;;28.00;4.70;;;;;;;13.04;59.15;97298.34;435351;1256;100571;-40
2024/03/31 05:23:37;;;;;;;27.50;4.80;;;;;;;13.65;58.94;97294.52;435341;1257;114179;-41
2024/03/31 05:33:44;;;;;;;21.70;4.90;;;;;;;14.28;58.50;97290.70;435353;1253;108834;-40
2024/03/31 05:43:50;;;;;;;26.00;4.60;;;;;;;14.87;57.84;97289.48;434927;1256;452348;-41
2024/03/31 05:53:57;;;;;;;27.40;4.50;;;;;;;15.22;56.90;97287.91;435222;1264;107424;-40
2024/03/31 06:04:03;;;;;;;19.90;5.30;;;;;;;15.33;56.36;97283.83;435170;1275;100547;-40
2024/03/31 06:14:14;;;;;;;23.50;4.20;;;;;;;15.47;56.08;97276.04;435180;1254;113328;-40
2024/03/31 06:24:20;;;;;;;19.80;5.50;;;;;;;15.70;55.80;97263.86;435248;1256;108479;-40
2024/03/31 06:34:27;;;;;;;23.00;5.60;;;;;;;15.97;55.45;97258.37;435277;1251;100661;-41
2024/03/31 06:44:34;;;;;;;20.90;4.50;;;;;;;16.44;54.61;97258.14;435387;1264;107112;-40
2024/03/31 06:54:40;;;;;;;26.00;5.60;;;;;;;16.78;53.73;97246.61;435231;1254;100728;-40
2024/03/31 07:04:47;;;;;;;19.30;5.30;;;;;;;17.08;53.09;97219.53;435082;1256;115064;-40
2024/03/31 07:14:54;;;;;;;16.90;4.30;;;;;;;17.66;52.50;97217.55;435232;1256;108559;-40
2024/03/31 07:24:58;;;;;;;18.90;4.90;;;;;;;18.50;51.36;97216.30;435234;1256;99856;-40
2024/03/31 07:35:05;;;;;;;16.60;6.00;;;;;;;19.68;50.94;97217.41;435411;1256;108888;-41
2024/03/31 07:45:12;;;;;;;20.70;5.20;;;;;;;20.15;47.79;97221.73;435201;1256;100638;-41
2024/03/31 07:55:18;;;;;;;18.30;4.70;;;;;;;19.89;47.45;97221.18;435334;1255;114289;-40
2024/03/31 08:05:24;;;;;;;22.70;3.80;;;;;;;19.78;47.03;97219.13;435222;1264;108334;-40
2024/03/31 08:25:37;;;;;;;26.50;3.80;;;;;;;21.20;41.60;97180.64;435310;1264;108568;-41
2024/03/31 08:35:51;;;;;;;29.80;5.60;;;;;;;21.14;41.11;97175.23;435237;1257;99701;-40
2024/03/31 08:45:59;;;;;;;27.10;5.40;;;;;;;21.14;39.86;97164.55;435337;1264;113447;-41
2024/03/31 08:56:07;;;;;;;31.10;4.50;;;;;;;21.41;38.55;97153.93;435168;1257;107200;-41
2024/03/31 09:06:14;;;;;;;26.20;4.80;;;;;;;21.87;38.58;97155.65;435326;1257;99269;-40
2024/03/31 09:26:27;;;;;;;36.60;7.20;;;;;;;22.47;35.97;97147.52;435134;1251;100681;-41
2024/03/31 09:36:36;;;;;;;39.40;7.60;;;;;;;22.25;35.13;97157.64;435180;1261;113570;-40
2024/03/31 09:46:43;;;;;;;50.30;7.20;;;;;;;22.07;35.10;97166.68;435117;1264;107461;-40
2024/03/31 09:57:08;;;;;;;55.50;7.50;;;;;;;22.23;35.67;97170.00;435224;1264;100577;-41
2024/03/31 10:07:17;;;;;;;55.50;7.40;;;;;;;22.84;34.47;97157.38;435343;1251;109428;-42
2024/03/31 10:17:24;;;;;;;55.30;8.50;;;;;;;23.24;33.39;97144.16;435193;1251;100617;-39
2024/03/31 10:27:33;;;;;;;58.00;8.70;;;;;;;23.40;32.09;97130.45;435359;1251;113341;-40
2024/03/31 10:37:40;;;;;;;71.10;9.50;;;;;;;23.12;30.77;97135.55;435066;1251;108233;-39
2024/03/31 10:47:47;;;;;;;79.60;11.50;;;;;;;23.27;31.08;97143.46;435333;1251;99358;-40
2024/03/31 10:57:58;;;;;;;69.60;10.50;;;;;;;23.62;31.13;97141.02;435412;1257;107729;-40
2024/03/31 11:08:05;;;;;;;77.10;12.80;;;;;;;23.79;30.50;97114.09;435380;1251;99415;-40
2024/03/31 11:28:17;;;;;;;95.20;10.90;;;;;;;23.75;29.83;97082.46;435360;1257;105859;-41
2024/03/31 11:38:25;;;;;;;70.90;10.00;;;;;;;23.70;30.20;97109.05;435289;1256;99358;-40
2024/03/31 11:48:32;;;;;;;61.50;9.10;;;;;;;23.83;30.76;97127.36;435235;1251;110372;-40
2024/03/31 11:58:38;;;;;;;51.40;8.60;;;;;;;23.78;30.28;97117.17;435270;1256;100672;-41
2024/03/31 12:08:44;;;;;;;67.70;10.40;;;;;;;23.70;30.97;97106.73;435172;1251;112996;-40
2024/03/31 12:18:52;;;;;;;75.00;12.30;;;;;;;23.73;31.46;97117.59;435125;1257;108137;-42
2024/03/31 12:28:58;;;;;;;73.40;12.80;;;;;;;23.78;31.89;97128.70;435244;1258;100567;-40
2024/03/31 12:39:05;;;;;;;98.00;14.00;;;;;;;23.56;31.00;97132.08;435174;1256;107874;-41
2024/03/31 12:49:14;;;;;;;73.60;11.90;;;;;;;23.28;30.80;97137.39;435267;1256;100582;-39
2024/03/31 12:59:20;;;;;;;82.70;12.30;;;;;;;23.13;31.62;97136.02;435425;1251;113597;-40
2024/03/31 13:09:27;;;;;;;70.50;10.10;;;;;;;22.72;31.85;97135.49;435286;1257;107987;-40
2024/03/31 13:19:34;;;;;;;57.40;10.40;;;;;;;22.56;32.59;97132.05;436355;1258;99312;-40
2024/03/31 13:29:40;;;;;;;57.30;10.80;;;;;;;22.61;32.75;97133.21;436458;1253;109036;-41
2024/03/31 13:39:47;;;;;;;68.10;10.40;;;;;;;22.47;32.92;97143.35;436757;1251;100638;-42
2024/03/31 13:49:54;;;;;;;73.80;9.70;;;;;;;22.35;33.33;97129.87;436786;1256;112124;-39
2024/03/31 14:00:00;;;;;;;60.00;9.80;;;;;;;22.24;33.77;97134.80;436920;1257;107264;-41
2024/03/31 14:10:09;;;;;;;63.50;11.20;;;;;;;22.07;33.44;97141.99;436049;1251;100369;-40
2024/03/31 14:20:15;;;;;;;52.30;9.30;;;;;;;21.89;33.59;97138.05;435267;1251;107682;-40
2024/03/31 14:30:22;;;;;;;51.10;10.90;;;;;;;21.85;34.00;97136.17;435368;1251;100588;-39
2024/03/31 14:40:29;;;;;;;55.40;9.20;;;;;;;21.66;34.20;97127.13;435300;1255;112261;-42
2024/03/31 14:50:36;;;;;;;60.60;9.90;;;;;;;21.49;34.43;97125.84;435400;1250;107961;-41
2024/03/31 15:00:43;;;;;;;45.10;9.30;;;;;;;21.40;34.94;97117.35;435139;1251;101131;-40
2024/03/31 15:10:49;;;;;;;63.50;11.10;;;;;;;21.28;35.34;97111.36;435269;1258;107953;-41
2024/03/31 15:20:55;;;;;;;66.90;10.40;;;;;;;21.06;35.69;97108.26;435114;1251;100582;-40
2024/03/31 15:41:09;;;;;;;53.50;10.40;;;;;;;20.71;36.22;97110.52;435131;1265;107885;-42
2024/03/31 15:51:14;;;;;;;67.70;10.30;;;;;;;20.56;36.37;97111.08;435324;1258;100602;-41
2024/03/31 16:01:21;;;;;;;66.30;10.00;;;;;;;20.42;36.38;97110.83;435090;1256;108771;-40
2024/03/31 16:11:27;;;;;;;65.00;12.20;;;;;;;20.32;36.69;97109.83;435233;1253;99392;-41
2024/03/31 16:21:33;;;;;;;80.90;11.60;;;;;;;20.19;36.59;97108.77;435261;1256;114290;-41
2024/03/31 16:31:40;;;;;;;63.80;9.70;;;;;;;20.05;36.77;97120.20;435331;1254;108341;-41
2024/03/31 16:41:47;;;;;;;68.00;11.20;;;;;;;19.86;37.09;97129.73;435169;1256;99416;-41
2024/03/31 16:51:53;;;;;;;68.60;12.00;;;;;;;19.66;37.47;97133.54;435225;1257;108582;-40
2024/03/31 17:02:01;;;;;;;63.20;11.40;;;;;;;19.48;37.79;97135.58;435141;1251;100577;-41
2024/03/31 17:12:10;;;;;;;60.50;11.20;;;;;;;19.25;38.09;97123.87;435314;1253;111949;-40
2024/03/31 17:22:17;;;;;;;64.70;11.70;;;;;;;18.98;38.51;97114.43;435345;1254;108743;-41
2024/03/31 17:32:24;;;;;;;62.60;12.40;;;;;;;18.70;39.05;97126.80;435199;1250;100548;-41
2024/03/31 17:42:31;;;;;;;74.50;18.10;;;;;;;18.42;39.37;97133.98;434858;1256;526309;-40
2024/03/31 17:52:37;;;;;;;62.70;12.40;;;;;;;18.16;39.86;97134.39;435254;1251;100463;-41
2024/03/31 18:02:43;;;;;;;65.60;17.90;;;;;;;17.87;40.29;97140.13;435296;1256;112526;-41
2024/03/31 18:12:50;;;;;;;82.60;16.50;;;;;;;17.63;40.80;97145.40;435324;1256;108310;-40
2024/03/31 18:22:56;;;;;;;81.70;17.80;;;;;;;17.40;41.06;97149.83;435287;1250;100643;-40
2024/03/31 18:33:03;;;;;;;67.90;16.90;;;;;;;17.18;41.63;97146.63;435284;1256;108619;-41
2024/03/31 18:43:09;;;;;;;72.80;15.00;;;;;;;16.98;42.03;97146.25;435153;1255;99324;-41
2024/03/31 18:53:15;;;;;;;81.50;18.50;;;;;;;16.76;42.70;97149.13;435182;1255;112128;-41
2024/03/31 19:03:22;;;;;;;72.40;17.50;;;;;;;16.56;43.13;97143.66;435225;1256;107271;-41
2024/03/31 19:13:29;;;;;;;70.40;15.00;;;;;;;16.36;43.57;97144.02;435317;1250;99870;-40
2024/03/31 19:23:38;;;;;;;75.60;16.30;;;;;;;16.24;43.94;97153.55;435290;1252;106571;-41
2024/03/31 19:33:44;;;;;;;88.10;19.60;;;;;;;16.22;44.24;97158.22;435358;1256;100587;-41
2024/03/31 19:43:50;;;;;;;81.80;19.00;;;;;;;16.24;44.53;97161.09;435280;1256;112683;-40
2024/03/31 19:53:57;;;;;;;85.20;20.10;;;;;;;16.18;44.72;97166.88;435133;1256;107100;-40
2024/03/31 20:04:04;;;;;;;73.50;18.60;;;;;;;16.03;45.13;97173.40;435299;1256;99382;-41
2024/03/31 20:14:11;;;;;;;75.20;20.00;;;;;;;15.89;45.30;97174.20;435217;1256;107765;-41
2024/03/31 20:24:18;;;;;;;76.50;18.30;;;;;;;15.89;45.78;97177.14;435118;1255;99366;-41
2024/03/31 20:34:24;;;;;;;75.10;18.70;;;;;;;15.88;45.89;97177.10;435371;1255;113411;-41
2024/03/31 20:44:31;;;;;;;82.40;22.40;;;;;;;15.89;46.21;97172.13;435317;1256;109386;-41
2024/03/31 20:54:37;;;;;;;94.60;23.40;;;;;;;15.91;46.30;97172.67;435275;1251;99848;-42
2024/03/31 21:04:44;;;;;;;79.70;19.20;;;;;;;15.92;46.35;97173.33;435282;1255;109340;-41
2024/03/31 21:24:56;;;;;;;79.30;17.30;;;;;;;15.84;46.58;97163.00;435132;1256;111936;-41
2024/03/31 21:35:03;;;;;;;75.30;17.20;;;;;;;15.68;46.51;97147.98;435057;1256;107952;-43
2024/03/31 21:55:14;;;;;;;56.00;15.60;;;;;;;15.12;47.16;97123.55;435212;1256;108895;-41
2024/03/31 22:05:21;;;;;;;64.70;15.90;;;;;;;14.99;47.51;97120.17;435341;1250;99943;-40
2024/03/31 22:15:27;;;;;;;67.30;15.70;;;;;;;14.80;47.89;97109.60;435264;1256;114218;-40
2024/03/31 22:35:39;;;;;;;65.60;14.40;;;;;;;14.19;48.76;97122.33;435317;1254;100591;-40
2024/03/31 22:45:46;;;;;;;65.20;11.40;;;;;;;13.99;49.30;97125.13;435340;1255;108950;-40
2024/03/31 22:55:53;;;;;;;54.20;12.00;;;;;;;13.97;49.94;97107.42;435240;1256;100569;-41
2024/03/31 23:06:00;;;;;;;61.10;10.60;;;;;;;13.99;50.54;97105.96;435314;1256;113174;-40
2024/03/31 23:16:07;;;;;;;47.10;8.90;;;;;;;14.05;50.92;97105.64;435329;1256;107872;-41
2024/03/31 23:26:14;;;;;;;56.70;9.90;;;;;;;14.00;51.13;97106.90;435367;1255;100668;-41
2024/03/31 23:46:27;;;;;;;42.10;10.40;;;;;;;13.75;51.99;97092.90;435297;1253;100574;-41
